sensor_id;sensor_type;location;lat;lon;timestamp;pressure;altitude;pressure_sealevel;temperature;humidity
76424;BME280;65257;52.104;4.268;2024-02-21T00:00:40;102041.19;;;9.26;85.93
76424;BME280;65257;52.104;4.268;2024-02-21T00:03:06;102023.53;;;9.24;85.88
76424;BME280;65257;52.104;4.268;2024-02-21T00:05:32;102007.72;;;9.23;85.45
76424;BME280;65257;52.104;4.268;2024-02-21T00:07:59;102005.06;;;9.23;85.67
76424;BME280;65257;52.104;4.268;2024-02-21T00:10:25;102013.88;;;9.23;85.56
76424;BME280;65257;52.104;4.268;2024-02-21T00:12:51;102011.03;;;9.27;85.84
76424;BME280;65257;52.104;4.268;2024-02-21T00:15:16;102019.09;;;9.25;85.47
76424;BME280;65257;52.104;4.268;2024-02-21T00:17:43;102035.78;;;9.27;85.47
76424;BME280;65257;52.104;4.268;2024-02-21T00:20:09;102034.81;;;9.28;85.96
76424;BME280;65257;52.104;4.268;2024-02-21T00:22:35;102042.91;;;9.27;85.41
76424;BME280;65257;52.104;4.268;2024-02-21T00:25:01;102041.94;;;9.28;85.44
76424;BME280;65257;52.104;4.268;2024-02-21T00:27:26;102033.97;;;9.28;85.45
76424;BME280;65257;52.104;4.268;2024-02-21T00:29:52;102039.28;;;9.28;85.68
76424;BME280;65257;52.104;4.268;2024-02-21T00:32:17;102036.72;;;9.26;85.71
76424;BME280;65257;52.104;4.268;2024-02-21T00:34:43;102027.91;;;9.26;86.08
76424;BME280;65257;52.104;4.268;2024-02-21T00:37:08;102029.88;;;9.22;85.84
76424;BME280;65257;52.104;4.268;2024-02-21T00:39:37;102018.63;;;9.18;85.49
76424;BME280;65257;52.104;4.268;2024-02-21T00:42:03;102014.38;;;9.16;85.75
76424;BME280;65257;52.104;4.268;2024-02-21T00:44:28;102016.06;;;9.17;85.97
76424;BME280;65257;52.104;4.268;2024-02-21T00:46:54;102015.22;;;9.16;86.03
76424;BME280;65257;52.104;4.268;2024-02-21T00:49:19;102003.84;;;9.14;85.79
76424;BME280;65257;52.104;4.268;2024-02-21T00:51:45;102005.56;;;9.15;86.38
76424;BME280;65257;52.104;4.268;2024-02-21T00:54:10;102004.63;;;9.16;86.06
76424;BME280;65257;52.104;4.268;2024-02-21T00:56:35;101997.47;;;9.17;86.23
76424;BME280;65257;52.104;4.268;2024-02-21T00:59:01;101997.28;;;9.20;86.36
76424;BME280;65257;52.104;4.268;2024-02-21T01:01:26;101996.44;;;9.19;86.24
76424;BME280;65257;52.104;4.268;2024-02-21T01:03:52;101993.78;;;9.19;86.07
76424;BME280;65257;52.104;4.268;2024-02-21T01:06:20;101997.28;;;9.20;86.29
76424;BME280;65257;52.104;4.268;2024-02-21T01:08:47;101996.34;;;9.21;86.02
76424;BME280;65257;52.104;4.268;2024-02-21T01:11:16;101991.78;;;9.23;86.47
76424;BME280;65257;52.104;4.268;2024-02-21T01:13:42;101988.09;;;9.26;86.44
76424;BME280;65257;52.104;4.268;2024-02-21T01:16:07;101980.22;;;9.24;86.66
76424;BME280;65257;52.104;4.268;2024-02-21T01:18:34;101991.59;;;9.26;86.48
76424;BME280;65257;52.104;4.268;2024-02-21T01:20:59;101982.69;;;9.27;86.46
76424;BME280;65257;52.104;4.268;2024-02-21T01:23:24;101980.03;;;9.27;86.08
76424;BME280;65257;52.104;4.268;2024-02-21T01:25:50;101972.81;;;9.29;86.49
76424;BME280;65257;52.104;4.268;2024-02-21T01:28:16;101976.34;;;9.30;86.35
76424;BME280;65257;52.104;4.268;2024-02-21T01:30:41;101966.53;;;9.30;86.28
76424;BME280;65257;52.104;4.268;2024-02-21T01:33:07;101965.78;;;9.28;86.22
76424;BME280;65257;52.104;4.268;2024-02-21T01:35:34;101958.03;;;9.25;86.66
76424;BME280;65257;52.104;4.268;2024-02-21T01:37:59;101958.44;;;9.19;86.12
76424;BME280;65257;52.104;4.268;2024-02-21T01:40:25;101960.44;;;9.15;86.32
76424;BME280;65257;52.104;4.268;2024-02-21T01:42:50;101964.03;;;9.14;86.52
76424;BME280;65257;52.104;4.268;2024-02-21T01:45:18;101960.31;;;9.17;86.65
76424;BME280;65257;52.104;4.268;2024-02-21T01:47:44;101955.88;;;9.17;86.73
76424;BME280;65257;52.104;4.268;2024-02-21T01:50:10;101949.69;;;9.17;86.71
76424;BME280;65257;52.104;4.268;2024-02-21T01:52:37;101937.41;;;9.16;86.18
76424;BME280;65257;52.104;4.268;2024-02-21T01:55:04;101941.19;;;9.12;86.30
76424;BME280;65257;52.104;4.268;2024-02-21T01:57:30;101940.63;;;9.07;85.90
76424;BME280;65257;52.104;4.268;2024-02-21T01:59:55;101935.63;;;9.02;86.40
76424;BME280;65257;52.104;4.268;2024-02-21T02:02:21;101937.63;;;8.99;86.06
76424;BME280;65257;52.104;4.268;2024-02-21T02:04:46;101930.53;;;8.99;86.76
76424;BME280;65257;52.104;4.268;2024-02-21T02:07:12;101940.75;;;9.05;86.90
76424;BME280;65257;52.104;4.268;2024-02-21T02:09:37;101932.47;;;9.10;86.68
76424;BME280;65257;52.104;4.268;2024-02-21T02:12:03;101933.16;;;9.13;86.68
76424;BME280;65257;52.104;4.268;2024-02-21T02:14:29;101932.09;;;9.16;86.33
76424;BME280;65257;52.104;4.268;2024-02-21T02:16:54;101928.47;;;9.17;86.90
76424;BME280;65257;52.104;4.268;2024-02-21T02:19:20;101923.94;;;9.19;86.45
76424;BME280;65257;52.104;4.268;2024-02-21T02:21:54;101919.38;;;9.21;86.49
76424;BME280;65257;52.104;4.268;2024-02-21T02:24:24;101915.00;;;9.20;86.60
76424;BME280;65257;52.104;4.268;2024-02-21T02:26:50;101913.09;;;9.22;86.75
76424;BME280;65257;52.104;4.268;2024-02-21T02:29:16;101910.44;;;9.22;86.32
76424;BME280;65257;52.104;4.268;2024-02-21T02:31:42;101920.97;;;9.23;86.60
76424;BME280;65257;52.104;4.268;2024-02-21T02:34:07;101907.72;;;9.23;86.19
76424;BME280;65257;52.104;4.268;2024-02-21T02:36:33;101910.25;;;9.25;86.62
76424;BME280;65257;52.104;4.268;2024-02-21T02:38:58;101908.44;;;9.26;86.26
76424;BME280;65257;52.104;4.268;2024-02-21T02:41:24;101912.91;;;9.25;86.58
76424;BME280;65257;52.104;4.268;2024-02-21T02:43:49;101899.63;;;9.25;86.70
76424;BME280;65257;52.104;4.268;2024-02-21T02:46:15;101890.91;;;9.23;86.62
76424;BME280;65257;52.104;4.268;2024-02-21T02:48:40;101891.97;;;9.20;86.04
76424;BME280;65257;52.104;4.268;2024-02-21T02:51:06;101877.84;;;9.20;85.95
76424;BME280;65257;52.104;4.268;2024-02-21T02:53:31;101871.59;;;9.21;86.05
76424;BME280;65257;52.104;4.268;2024-02-21T02:55:56;101881.34;;;9.20;86.40
76424;BME280;65257;52.104;4.268;2024-02-21T02:58:22;101863.94;;;9.16;86.11
76424;BME280;65257;52.104;4.268;2024-02-21T03:00:48;101854.47;;;9.12;86.22
76424;BME280;65257;52.104;4.268;2024-02-21T03:03:13;101857.31;;;9.09;86.50
76424;BME280;65257;52.104;4.268;2024-02-21T03:05:38;101857.31;;;9.09;86.13
76424;BME280;65257;52.104;4.268;2024-02-21T03:08:04;101852.13;;;9.08;86.04
76424;BME280;65257;52.104;4.268;2024-02-21T03:10:33;101846.16;;;9.04;86.28
76424;BME280;65257;52.104;4.268;2024-02-21T03:12:58;101835.94;;;8.98;86.49
76424;BME280;65257;52.104;4.268;2024-02-21T03:15:24;101826.59;;;8.93;86.06
76424;BME280;65257;52.104;4.268;2024-02-21T03:17:49;101840.06;;;8.90;86.44
76424;BME280;65257;52.104;4.268;2024-02-21T03:20:15;101834.75;;;8.90;86.89
76424;BME280;65257;52.104;4.268;2024-02-21T03:22:41;101839.94;;;8.91;86.56
76424;BME280;65257;52.104;4.268;2024-02-21T03:25:07;101840.63;;;8.95;86.83
76424;BME280;65257;52.104;4.268;2024-02-21T03:27:32;101827.97;;;8.98;86.80
76424;BME280;65257;52.104;4.268;2024-02-21T03:29:58;101823.44;;;9.00;86.69
76424;BME280;65257;52.104;4.268;2024-02-21T03:32:23;101819.75;;;9.03;86.63
76424;BME280;65257;52.104;4.268;2024-02-21T03:34:49;101822.28;;;9.04;86.32
76424;BME280;65257;52.104;4.268;2024-02-21T03:37:14;101814.22;;;9.06;86.00
76424;BME280;65257;52.104;4.268;2024-02-21T03:39:40;101814.22;;;9.06;86.43
76424;BME280;65257;52.104;4.268;2024-02-21T03:42:05;101820.38;;;9.06;86.16
76424;BME280;65257;52.104;4.268;2024-02-21T03:44:31;101811.47;;;9.07;86.13
76424;BME280;65257;52.104;4.268;2024-02-21T03:46:58;101804.34;;;9.08;86.07
76424;BME280;65257;52.104;4.268;2024-02-21T03:49:24;101799.91;;;9.08;86.21
76424;BME280;65257;52.104;4.268;2024-02-21T03:51:49;101791.84;;;9.10;86.25
76424;BME280;65257;52.104;4.268;2024-02-21T03:54:14;101790.97;;;9.09;86.10
76424;BME280;65257;52.104;4.268;2024-02-21T03:56:40;101789.19;;;9.10;86.55
76424;BME280;65257;52.104;4.268;2024-02-21T03:59:07;101789.06;;;9.11;86.33
76424;BME280;65257;52.104;4.268;2024-02-21T04:01:33;101796.94;;;9.13;85.72
76424;BME280;65257;52.104;4.268;2024-02-21T04:03:58;101793.31;;;9.14;86.13
76424;BME280;65257;52.104;4.268;2024-02-21T04:06:24;101807.56;;;9.13;86.37
76424;BME280;65257;52.104;4.268;2024-02-21T04:08:49;101810.88;;;9.16;85.73
76424;BME280;65257;52.104;4.268;2024-02-21T04:11:14;101805.56;;;9.16;86.18
76424;BME280;65257;52.104;4.268;2024-02-21T04:13:40;101806.31;;;9.18;85.86
76424;BME280;65257;52.104;4.268;2024-02-21T04:16:05;101798.34;;;9.18;85.69
76424;BME280;65257;52.104;4.268;2024-02-21T04:18:31;101799.28;;;9.17;85.70
76424;BME280;65257;52.104;4.268;2024-02-21T04:20:56;101792.16;;;9.18;85.71
76424;BME280;65257;52.104;4.268;2024-02-21T04:23:22;101789.53;;;9.18;85.56
76424;BME280;65257;52.104;4.268;2024-02-21T04:25:47;101782.41;;;9.18;85.76
76424;BME280;65257;52.104;4.268;2024-02-21T04:28:12;101782.28;;;9.20;85.89
76424;BME280;65257;52.104;4.268;2024-02-21T04:30:38;101775.31;;;9.19;85.43
76424;BME280;65257;52.104;4.268;2024-02-21T04:33:03;101775.31;;;9.19;85.33
76424;BME280;65257;52.104;4.268;2024-02-21T04:35:28;101762.97;;;9.18;85.68
76424;BME280;65257;52.104;4.268;2024-02-21T04:37:54;101757.56;;;9.19;85.46
76424;BME280;65257;52.104;4.268;2024-02-21T04:40:20;101759.25;;;9.20;85.37
76424;BME280;65257;52.104;4.268;2024-02-21T04:42:45;101753.94;;;9.20;85.16
76424;BME280;65257;52.104;4.268;2024-02-21T04:45:10;101755.75;;;9.20;85.05
76424;BME280;65257;52.104;4.268;2024-02-21T04:47:36;101758.41;;;9.20;85.46
76424;BME280;65257;52.104;4.268;2024-02-21T04:50:01;101765.63;;;9.18;85.18
76424;BME280;65257;52.104;4.268;2024-02-21T04:52:27;101754.28;;;9.16;84.97
76424;BME280;65257;52.104;4.268;2024-02-21T04:54:52;101741.88;;;9.16;85.41
76424;BME280;65257;52.104;4.268;2024-02-21T04:57:18;101732.94;;;9.17;85.07
76424;BME280;65257;52.104;4.268;2024-02-21T04:59:46;101733.56;;;9.21;84.99
76424;BME280;65257;52.104;4.268;2024-02-21T05:02:15;101730.81;;;9.22;85.05
76424;BME280;65257;52.104;4.268;2024-02-21T05:04:42;101714.78;;;9.24;85.35
76424;BME280;65257;52.104;4.268;2024-02-21T05:07:07;101720.09;;;9.24;84.86
76424;BME280;65257;52.104;4.268;2024-02-21T05:09:33;101709.50;;;9.24;84.71
76424;BME280;65257;52.104;4.268;2024-02-21T05:11:59;101716.38;;;9.27;84.63
76424;BME280;65257;52.104;4.268;2024-02-21T05:14:25;101720.72;;;9.28;84.64
76424;BME280;65257;52.104;4.268;2024-02-21T05:16:52;101707.38;;;9.29;84.63
76424;BME280;65257;52.104;4.268;2024-02-21T05:19:17;101693.22;;;9.29;84.45
76424;BME280;65257;52.104;4.268;2024-02-21T05:21:43;101688.66;;;9.31;84.59
76424;BME280;65257;52.104;4.268;2024-02-21T05:24:08;101683.13;;;9.34;84.62
76424;BME280;65257;52.104;4.268;2024-02-21T05:26:33;101682.19;;;9.35;84.36
76424;BME280;65257;52.104;4.268;2024-02-21T05:28:59;101682.06;;;9.36;84.42
76424;BME280;65257;52.104;4.268;2024-02-21T05:31:25;101680.38;;;9.35;84.32
76424;BME280;65257;52.104;4.268;2024-02-21T05:33:50;101672.41;;;9.35;84.08
76424;BME280;65257;52.104;4.268;2024-02-21T05:36:16;101666.28;;;9.35;84.25
76424;BME280;65257;52.104;4.268;2024-02-21T05:38:41;101674.97;;;9.37;84.28
76424;BME280;65257;52.104;4.268;2024-02-21T05:41:07;101665.28;;;9.36;83.92
76424;BME280;65257;52.104;4.268;2024-02-21T05:43:32;101658.50;;;9.32;83.90
76424;BME280;65257;52.104;4.268;2024-02-21T05:45:58;101660.44;;;9.30;83.68
76424;BME280;65257;52.104;4.268;2024-02-21T05:48:23;101649.81;;;9.30;84.19
76424;BME280;65257;52.104;4.268;2024-02-21T05:50:49;101646.31;;;9.29;83.93
76424;BME280;65257;52.104;4.268;2024-02-21T05:53:14;101648.00;;;9.30;83.30
76424;BME280;65257;52.104;4.268;2024-02-21T05:55:40;101642.69;;;9.30;83.30
76424;BME280;65257;52.104;4.268;2024-02-21T05:58:06;101642.47;;;9.33;83.49
76424;BME280;65257;52.104;4.268;2024-02-21T06:00:32;101637.16;;;9.33;83.16
76424;BME280;65257;52.104;4.268;2024-02-21T06:02:57;101636.31;;;9.33;83.29
76424;BME280;65257;52.104;4.268;2024-02-21T06:05:23;101635.34;;;9.34;83.40
76424;BME280;65257;52.104;4.268;2024-02-21T06:07:49;101639.94;;;9.32;83.46
76424;BME280;65257;52.104;4.268;2024-02-21T06:10:14;101640.03;;;9.30;83.36
76424;BME280;65257;52.104;4.268;2024-02-21T06:12:40;101634.63;;;9.32;83.16
76424;BME280;65257;52.104;4.268;2024-02-21T06:15:05;101636.53;;;9.30;83.09
76424;BME280;65257;52.104;4.268;2024-02-21T06:17:31;101646.31;;;9.29;83.09
76424;BME280;65257;52.104;4.268;2024-02-21T06:19:56;101650.88;;;9.27;83.17
76424;BME280;65257;52.104;4.268;2024-02-21T06:22:22;101648.31;;;9.26;83.04
76424;BME280;65257;52.104;4.268;2024-02-21T06:24:47;101656.41;;;9.24;83.03
76424;BME280;65257;52.104;4.268;2024-02-21T06:27:12;101643.94;;;9.24;83.32
76424;BME280;65257;52.104;4.268;2024-02-21T06:29:40;101647.59;;;9.23;82.98
76424;BME280;65257;52.104;4.268;2024-02-21T06:32:05;101643.13;;;9.24;83.27
76424;BME280;65257;52.104;4.268;2024-02-21T06:34:31;101630.81;;;9.23;82.95
76424;BME280;65257;52.104;4.268;2024-02-21T06:36:57;101638.03;;;9.21;83.22
76424;BME280;65257;52.104;4.268;2024-02-21T06:39:22;101634.53;;;9.20;82.66
76424;BME280;65257;52.104;4.268;2024-02-21T06:41:48;101628.34;;;9.20;82.90
76424;BME280;65257;52.104;4.268;2024-02-21T06:44:16;101605.53;;;9.17;83.06
76424;BME280;65257;52.104;4.268;2024-02-21T06:46:44;101612.75;;;9.15;83.40
76424;BME280;65257;52.104;4.268;2024-02-21T06:49:09;101606.72;;;9.13;82.98
76424;BME280;65257;52.104;4.268;2024-02-21T06:51:43;101613.31;;;9.08;82.94
76424;BME280;65257;52.104;4.268;2024-02-21T06:54:09;101608.00;;;9.08;83.59
76424;BME280;65257;52.104;4.268;2024-02-21T06:56:36;101602.69;;;9.08;83.41
76424;BME280;65257;52.104;4.268;2024-02-21T06:59:01;101600.97;;;9.07;83.57
76424;BME280;65257;52.104;4.268;2024-02-21T07:01:28;101594.81;;;9.06;83.25
76424;BME280;65257;52.104;4.268;2024-02-21T07:03:54;101584.19;;;9.06;83.10
76424;BME280;65257;52.104;4.268;2024-02-21T07:06:19;101586.84;;;9.06;83.28
76424;BME280;65257;52.104;4.268;2024-02-21T07:08:45;101587.50;;;9.10;83.29
76424;BME280;65257;52.104;4.268;2024-02-21T07:11:10;101578.69;;;9.09;83.31
76424;BME280;65257;52.104;4.268;2024-02-21T07:13:36;101580.41;;;9.10;83.49
76424;BME280;65257;52.104;4.268;2024-02-21T07:16:01;101571.38;;;9.13;83.48
76424;BME280;65257;52.104;4.268;2024-02-21T07:18:27;101568.59;;;9.14;83.29
76424;BME280;65257;52.104;4.268;2024-02-21T07:20:53;101573.91;;;9.14;83.24
76424;BME280;65257;52.104;4.268;2024-02-21T07:23:18;101565.09;;;9.14;83.21
76424;BME280;65257;52.104;4.268;2024-02-21T07:25:44;101552.88;;;9.11;83.22
76424;BME280;65257;52.104;4.268;2024-02-21T07:28:09;101559.03;;;9.12;83.08
76424;BME280;65257;52.104;4.268;2024-02-21T07:30:35;101551.09;;;9.12;83.45
76424;BME280;65257;52.104;4.268;2024-02-21T07:33:00;101546.63;;;9.12;83.28
76424;BME280;65257;52.104;4.268;2024-02-21T07:35:26;101568.72;;;9.13;83.40
76424;BME280;65257;52.104;4.268;2024-02-21T07:37:51;101553.53;;;9.15;83.30
76424;BME280;65257;52.104;4.268;2024-02-21T07:40:17;101542.81;;;9.16;83.10
76424;BME280;65257;52.104;4.268;2024-02-21T07:42:43;101528.56;;;9.17;83.33
76424;BME280;65257;52.104;4.268;2024-02-21T07:45:09;101527.72;;;9.17;83.15
76424;BME280;65257;52.104;4.268;2024-02-21T07:47:35;101513.50;;;9.18;83.49
76424;BME280;65257;52.104;4.268;2024-02-21T07:50:02;101527.72;;;9.17;82.99
76424;BME280;65257;52.104;4.268;2024-02-21T07:52:28;101513.63;;;9.16;82.94
76424;BME280;65257;52.104;4.268;2024-02-21T07:54:53;101514.56;;;9.15;83.38
76424;BME280;65257;52.104;4.268;2024-02-21T07:57:18;101505.88;;;9.13;83.35
76424;BME280;65257;52.104;4.268;2024-02-21T07:59:44;101502.38;;;9.13;83.07
76424;BME280;65257;52.104;4.268;2024-02-21T08:02:16;101513.63;;;9.16;83.42
76424;BME280;65257;52.104;4.268;2024-02-21T08:04:41;101501.94;;;9.19;82.83
76424;BME280;65257;52.104;4.268;2024-02-21T08:07:07;101496.38;;;9.22;82.71
76424;BME280;65257;52.104;4.268;2024-02-21T08:09:33;101493.00;;;9.20;83.17
76424;BME280;65257;52.104;4.268;2024-02-21T08:11:58;101494.50;;;9.24;83.10
76424;BME280;65257;52.104;4.268;2024-02-21T08:14:24;101484.81;;;9.23;82.48
76424;BME280;65257;52.104;4.268;2024-02-21T08:16:51;101470.38;;;9.27;82.79
76424;BME280;65257;52.104;4.268;2024-02-21T08:19:18;101471.97;;;9.30;82.77
76424;BME280;65257;52.104;4.268;2024-02-21T08:21:44;101477.28;;;9.30;82.72
76424;BME280;65257;52.104;4.268;2024-02-21T08:24:12;101471.00;;;9.31;82.77
76424;BME280;65257;52.104;4.268;2024-02-21T08:26:40;101465.47;;;9.34;82.31
76424;BME280;65257;52.104;4.268;2024-02-21T08:29:06;101448.47;;;9.36;82.10
76424;BME280;65257;52.104;4.268;2024-02-21T08:31:31;101465.97;;;9.39;82.61
76424;BME280;65257;52.104;4.268;2024-02-21T08:34:02;101450.91;;;9.39;82.59
76424;BME280;65257;52.104;4.268;2024-02-21T08:36:30;101456.00;;;9.42;82.59
76424;BME280;65257;52.104;4.268;2024-02-21T08:38:56;101454.19;;;9.43;81.99
76424;BME280;65257;52.104;4.268;2024-02-21T08:41:22;101451.41;;;9.44;82.23
76424;BME280;65257;52.104;4.268;2024-02-21T08:43:49;101445.88;;;9.47;82.41
76424;BME280;65257;52.104;4.268;2024-02-21T08:46:15;101444.56;;;9.53;82.17
76424;BME280;65257;52.104;4.268;2024-02-21T08:48:40;101434.31;;;9.59;81.86
76424;BME280;65257;52.104;4.268;2024-02-21T08:51:06;101447.28;;;9.64;81.60
76424;BME280;65257;52.104;4.268;2024-02-21T08:53:31;101429.66;;;9.63;81.89
76424;BME280;65257;52.104;4.268;2024-02-21T08:55:56;101427.63;;;9.66;81.67
76424;BME280;65257;52.104;4.268;2024-02-21T08:58:22;101431.00;;;9.68;81.83
76424;BME280;65257;52.104;4.268;2024-02-21T09:00:49;101430.88;;;9.70;81.47
76424;BME280;65257;52.104;4.268;2024-02-21T09:03:16;101415.66;;;9.72;81.08
76424;BME280;65257;52.104;4.268;2024-02-21T09:05:43;101401.06;;;9.77;81.46
76424;BME280;65257;52.104;4.268;2024-02-21T09:08:08;101409.66;;;9.81;81.07
76424;BME280;65257;52.104;4.268;2024-02-21T09:10:33;101398.09;;;9.82;81.04
76424;BME280;65257;52.104;4.268;2024-02-21T09:12:59;101392.28;;;9.88;80.49
76424;BME280;65257;52.104;4.268;2024-02-21T09:15:24;101380.69;;;9.89;80.41
76424;BME280;65257;52.104;4.268;2024-02-21T09:17:50;101368.13;;;9.91;80.34
76424;BME280;65257;52.104;4.268;2024-02-21T09:20:15;101358.00;;;9.96;79.87
76424;BME280;65257;52.104;4.268;2024-02-21T09:22:41;101353.78;;;9.94;79.69
76424;BME280;65257;52.104;4.268;2024-02-21T09:25:07;101350.66;;;10.00;80.09
76424;BME280;65257;52.104;4.268;2024-02-21T09:27:32;101348.22;;;9.97;79.02
76424;BME280;65257;52.104;4.268;2024-02-21T09:29:58;101341.34;;;9.94;79.06
76424;BME280;65257;52.104;4.268;2024-02-21T09:32:23;101342.19;;;9.95;79.29
76424;BME280;65257;52.104;4.268;2024-02-21T09:34:49;101330.84;;;9.93;79.22
76424;BME280;65257;52.104;4.268;2024-02-21T09:37:14;101322.88;;;9.93;79.34
76424;BME280;65257;52.104;4.268;2024-02-21T09:39:39;101333.50;;;9.93;78.69
76424;BME280;65257;52.104;4.268;2024-02-21T09:42:11;101316.34;;;9.97;79.29
76424;BME280;65257;52.104;4.268;2024-02-21T09:44:37;101305.34;;;10.01;79.16
76424;BME280;65257;52.104;4.268;2024-02-21T09:47:22;101303.28;;;10.05;79.00
76424;BME280;65257;52.104;4.268;2024-02-21T09:49:49;101304.25;;;10.04;78.91
76424;BME280;65257;52.104;4.268;2024-02-21T09:52:19;101287.97;;;10.08;78.86
76424;BME280;65257;52.104;4.268;2024-02-21T09:54:46;101284.13;;;10.12;78.23
76424;BME280;65257;52.104;4.268;2024-02-21T09:57:14;101269.59;;;10.05;78.38
76424;BME280;65257;52.104;4.268;2024-02-21T09:59:40;101273.34;;;10.03;78.50
76424;BME280;65257;52.104;4.268;2024-02-21T10:02:08;101257.25;;;10.04;78.23
76424;BME280;65257;52.104;4.268;2024-02-21T10:04:34;101260.78;;;10.05;78.00
76424;BME280;65257;52.104;4.268;2024-02-21T10:06:59;101243.88;;;10.06;77.95
76424;BME280;65257;52.104;4.268;2024-02-21T10:09:26;101248.44;;;10.04;77.99
76424;BME280;65257;52.104;4.268;2024-02-21T10:11:56;101247.50;;;10.05;77.92
76424;BME280;65257;52.104;4.268;2024-02-21T10:14:21;101243.97;;;10.04;78.31
76424;BME280;65257;52.104;4.268;2024-02-21T10:16:48;101235.16;;;10.04;77.98
76424;BME280;65257;52.104;4.268;2024-02-21T10:19:20;101245.69;;;10.05;77.91
76424;BME280;65257;52.104;4.268;2024-02-21T10:22:01;101235.28;;;10.02;77.52
76424;BME280;65257;52.104;4.268;2024-02-21T10:24:29;101237.00;;;10.03;77.53
76424;BME280;65257;52.104;4.268;2024-02-21T10:27:08;101242.41;;;10.02;77.59
76424;BME280;65257;52.104;4.268;2024-02-21T10:29:37;101239.03;;;10.00;77.75
76424;BME280;65257;52.104;4.268;2024-02-21T10:32:10;101233.84;;;9.98;78.20
76424;BME280;65257;52.104;4.268;2024-02-21T10:34:37;101241.84;;;9.98;77.86
76424;BME280;65257;52.104;4.268;2024-02-21T10:37:04;101241.94;;;9.97;77.91
76424;BME280;65257;52.104;4.268;2024-02-21T10:39:33;101230.22;;;9.99;77.77
76424;BME280;65257;52.104;4.268;2024-02-21T10:42:03;101223.56;;;10.05;78.07
76424;BME280;65257;52.104;4.268;2024-02-21T10:44:32;101211.16;;;10.16;77.42
76424;BME280;65257;52.104;4.268;2024-02-21T10:46:58;101205.47;;;10.21;77.07
76424;BME280;65257;52.104;4.268;2024-02-21T10:49:26;101185.28;;;10.29;77.22
76424;BME280;65257;52.104;4.268;2024-02-21T10:54:48;101184.13;;;10.43;76.21
76424;BME280;65257;52.104;4.268;2024-02-21T10:57:19;101170.97;;;10.41;75.71
76424;BME280;65257;52.104;4.268;2024-02-21T10:59:48;101184.13;;;10.43;75.47
76424;BME280;65257;52.104;4.268;2024-02-21T11:02:15;101162.03;;;10.42;75.68
76424;BME280;65257;52.104;4.268;2024-02-21T11:04:40;101165.63;;;10.41;75.87
76424;BME280;65257;52.104;4.268;2024-02-21T11:07:07;101169.88;;;10.44;76.01
76424;BME280;65257;52.104;4.268;2024-02-21T11:09:33;101160.31;;;10.41;75.51
76424;BME280;65257;52.104;4.268;2024-02-21T11:12:02;101144.84;;;10.47;76.16
76424;BME280;65257;52.104;4.268;2024-02-21T11:14:29;101155.44;;;10.58;75.65
76424;BME280;65257;52.104;4.268;2024-02-21T11:16:58;101147.16;;;10.72;75.03
76424;BME280;65257;52.104;4.268;2024-02-21T11:19:27;101135.97;;;10.78;74.81
76424;BME280;65257;52.104;4.268;2024-02-21T11:21:55;101137.63;;;10.90;75.29
76424;BME280;65257;52.104;4.268;2024-02-21T11:24:29;101127.72;;;11.01;74.99
76424;BME280;65257;52.104;4.268;2024-02-21T11:26:55;101117.59;;;11.16;74.30
76424;BME280;65257;52.104;4.268;2024-02-21T11:29:24;101102.47;;;11.17;73.05
76424;BME280;65257;52.104;4.268;2024-02-21T11:31:51;101127.13;;;11.19;73.49
76424;BME280;65257;52.104;4.268;2024-02-21T11:34:20;101094.34;;;11.18;72.75
76424;BME280;65257;52.104;4.268;2024-02-21T11:36:52;101108.09;;;11.23;73.15
76424;BME280;65257;52.104;4.268;2024-02-21T11:39:22;101088.97;;;11.39;72.80
76424;BME280;65257;52.104;4.268;2024-02-21T11:42:00;101090.28;;;11.54;72.18
76424;BME280;65257;52.104;4.268;2024-02-21T11:44:26;101084.16;;;11.63;72.47
76424;BME280;65257;52.104;4.268;2024-02-21T11:46:51;101080.22;;;11.67;71.64
76424;BME280;65257;52.104;4.268;2024-02-21T11:49:16;101070.13;;;11.61;72.24
76424;BME280;65257;52.104;4.268;2024-02-21T11:51:42;101065.06;;;11.67;71.41
76424;BME280;65257;52.104;4.268;2024-02-21T11:54:07;101049.56;;;11.73;71.41
76424;BME280;65257;52.104;4.268;2024-02-21T11:56:35;101051.25;;;11.74;71.02
76424;BME280;65257;52.104;4.268;2024-02-21T11:59:00;101035.75;;;11.67;70.57
76424;BME280;65257;52.104;4.268;2024-02-21T12:01:25;101032.56;;;11.64;71.16
76424;BME280;65257;52.104;4.268;2024-02-21T12:03:51;101008.69;;;11.62;71.08
76424;BME280;65257;52.104;4.268;2024-02-21T12:06:17;100997.47;;;11.49;70.15
76424;BME280;65257;52.104;4.268;2024-02-21T12:08:46;100987.94;;;11.56;70.70
76424;BME280;65257;52.104;4.268;2024-02-21T12:11:22;100971.81;;;11.58;70.66
76424;BME280;65257;52.104;4.268;2024-02-21T12:13:58;100973.94;;;11.64;69.96
76424;BME280;65257;52.104;4.268;2024-02-21T12:16:25;100971.66;;;11.59;70.64
76424;BME280;65257;52.104;4.268;2024-02-21T12:18:56;100950.50;;;11.67;70.13
76424;BME280;65257;52.104;4.268;2024-02-21T12:21:32;100938.06;;;11.78;69.85
76424;BME280;65257;52.104;4.268;2024-02-21T12:23:58;100938.78;;;11.80;70.74
76424;BME280;65257;52.104;4.268;2024-02-21T12:26:24;100938.06;;;11.97;69.14
76424;BME280;65257;52.104;4.268;2024-02-21T12:28:51;100938.34;;;11.94;69.94
76424;BME280;65257;52.104;4.268;2024-02-21T12:31:16;100918.56;;;11.87;69.47
76424;BME280;65257;52.104;4.268;2024-02-21T12:33:45;100918.59;;;11.77;69.51
76424;BME280;65257;52.104;4.268;2024-02-21T12:36:10;100901.88;;;11.75;69.73
76424;BME280;65257;52.104;4.268;2024-02-21T12:38:36;100913.06;;;11.59;69.78
76424;BME280;65257;52.104;4.268;2024-02-21T12:41:01;100912.09;;;11.51;69.98
76424;BME280;65257;52.104;4.268;2024-02-21T12:43:27;100898.91;;;11.49;70.08
76424;BME280;65257;52.104;4.268;2024-02-21T12:45:52;100892.03;;;11.47;70.24
76424;BME280;65257;52.104;4.268;2024-02-21T12:48:18;100874.38;;;11.55;70.15
76424;BME280;65257;52.104;4.268;2024-02-21T12:50:50;100903.66;;;11.65;70.38
76424;BME280;65257;52.104;4.268;2024-02-21T12:53:21;100898.34;;;11.65;70.52
76424;BME280;65257;52.104;4.268;2024-02-21T12:55:48;100898.19;;;11.57;70.02